Amboy, Minnesota
Current Conditions -  °F | °C
As of 4:55 PM on Friday 31 Oct 2014 (Local Time) from KJYG Reporting Station
Clear Clear  
Wind Chill:   Ceiling: Unl
Heat Index:   Visibility: 7mi
Dew Point: -11°   Wind: 3mph
Humidity: 33%   Direction: 330°NNW
Pressure: 30.5"   Gusts: NA
Location:  43.89°N, 94.16°W
Report Text: KJYG 312155Z AUTO 33003KT 7SM CLR 04/M11 A3050 RMK AO2
Loading
Personal Weather Stations






























Interactive Weather Map
Tropical Storm Tracking
New forecast layout! Learn more

10-Day Weather Forecast

Advertisements
Track Severe Weather on mobile